TAF MKJS
MKJS 072315Z 0800/0824 06016KT 9999 FEW022 BECMG 0802/0804 13005KT BECMG 0813/0815 07015KT FEW022CB=
METAR MKJS
WC MKJS
WS MKJS
WV MKJS